Time;durP1;ratioP1;P1;durP2;ratioP2;P2;SDS_P1;SDS_P2;PMS_P1;PMS_P2;Temp;Humidity;BMP_temperature;BMP_pressure;BME280_temperature;BME280_humidity;BME280_pressure;Samples;Min_cycle;Max_cycle;Signal;HPM_P1;HPM_P2
2022/07/17 00:01:02;;;;;;;9.75;1.27;;;13.60;99.90;;;;;;5002024;28;20038;-75
2022/07/17 00:03:28;;;;;;;4.07;0.82;;;13.60;99.90;;;;;;5002134;28;20062;-73
2022/07/17 00:05:54;;;;;;;3.45;0.82;;;13.60;99.90;;;;;;5001595;28;20030;-74
2022/07/17 00:08:20;;;;;;;23.23;1.50;;;13.50;99.90;;;;;;5001960;28;20054;-74
2022/07/17 00:10:46;;;;;;;1.77;0.65;;;13.40;99.90;;;;;;5003175;28;20144;-73
2022/07/17 00:13:11;;;;;;;1.23;0.43;;;13.50;99.90;;;;;;5002374;28;20072;-74
2022/07/17 00:15:37;;;;;;;2.95;0.70;;;13.50;99.90;;;;;;5002248;28;20041;-75
2022/07/17 00:18:06;;;;;;;1.08;0.68;;;13.40;99.90;;;;;;5003160;28;20027;-75
2022/07/17 00:20:32;;;;;;;1.10;0.70;;;13.50;99.90;;;;;;5001628;28;20034;-75
2022/07/17 00:22:57;;;;;;;1.05;0.68;;;13.50;99.90;;;;;;5001908;28;20026;-75
2022/07/17 00:25:25;;;;;;;7.53;1.10;;;13.40;99.90;;;;;;5003672;28;20114;-75
2022/07/17 00:27:51;;;;;;;2.05;0.90;;;13.30;99.90;;;;;;5001676;28;20054;-74
2022/07/17 00:30:17;;;;;;;12.40;1.05;;;13.30;99.90;;;;;;5003290;28;20037;-73
2022/07/17 00:32:49;;;;;;;2.28;1.27;;;13.30;99.90;;;;;;5076791;28;20422;-74
2022/07/17 00:35:15;;;;;;;1.30;0.80;;;13.30;99.90;;;;;;5078237;28;20085;-74
2022/07/17 00:37:44;;;;;;;5.40;1.27;;;13.30;99.90;;;;;;5078910;28;20042;-74
2022/07/17 00:40:12;;;;;;;2.17;1.02;;;13.20;99.90;;;;;;5076560;28;20040;-74
2022/07/17 00:42:41;;;;;;;0.85;0.55;;;13.20;99.90;;;;;;5074462;28;20028;-73
2022/07/17 00:45:09;;;;;;;1.00;0.70;;;13.20;99.90;;;;;;5076587;28;20036;-73
2022/07/17 00:47:55;;;;;;;2.75;0.95;;;13.10;99.90;;;;;;5077988;28;20039;-74
2022/07/17 00:50:23;;;;;;;0.75;0.75;;;13.10;99.90;;;;;;5078607;28;20091;-73
2022/07/17 00:52:49;;;;;;;0.93;0.68;;;13.00;99.90;;;;;;5079075;28;20036;-74
2022/07/17 00:55:16;;;;;;;0.73;0.47;;;13.00;99.90;;;;;;5076364;28;20035;-74
2022/07/17 00:57:45;;;;;;;1.25;0.85;;;13.00;99.90;;;;;;5078798;28;20157;-74
2022/07/17 01:00:11;;;;;;;1.13;0.73;;;12.90;99.90;;;;;;5078623;28;20033;-75
2022/07/17 01:02:39;;;;;;;2.33;0.88;;;12.90;99.90;;;;;;5077740;28;20056;-75
2022/07/17 01:05:05;;;;;;;3.70;1.00;;;12.80;99.90;;;;;;5078842;28;20024;-73
2022/07/17 01:07:32;;;;;;;7.13;1.40;;;12.80;99.90;;;;;;5078853;28;20089;-74
2022/07/17 01:09:58;;;;;;;1.52;1.17;;;12.70;99.90;;;;;;5077943;28;20040;-74
2022/07/17 01:12:25;;;;;;;4.70;0.93;;;12.70;99.90;;;;;;5078592;28;20036;-74
2022/07/17 01:14:52;;;;;;;6.65;1.33;;;12.70;99.90;;;;;;5078749;28;20083;-74
2022/07/17 01:17:17;;;;;;;7.68;0.75;;;12.70;99.90;;;;;;5077926;28;20032;-73
2022/07/17 01:19:43;;;;;;;6.25;1.40;;;12.70;99.90;;;;;;5078484;28;20025;-74
2022/07/17 01:22:09;;;;;;;4.22;0.95;;;12.70;99.90;;;;;;5078115;28;20086;-74
2022/07/17 01:24:39;;;;;;;1.75;1.25;;;12.60;99.90;;;;;;5075648;28;20017;-73
2022/07/17 01:27:04;;;;;;;1.67;0.68;;;12.60;99.90;;;;;;5076512;28;20033;-73
2022/07/17 01:29:30;;;;;;;1.92;1.00;;;12.60;99.90;;;;;;5078090;28;20086;-72
2022/07/17 01:31:56;;;;;;;5.10;1.20;;;12.60;99.90;;;;;;5077801;28;20104;-72
2022/07/17 01:34:21;;;;;;;4.00;0.88;;;12.60;99.90;;;;;;5078471;28;20147;-72
2022/07/17 01:36:47;;;;;;;1.35;0.85;;;12.50;99.90;;;;;;5077153;28;20029;-72
2022/07/17 01:39:12;;;;;;;4.05;0.93;;;12.50;99.90;;;;;;5077910;28;20076;-72
2022/07/17 01:41:38;;;;;;;3.60;1.25;;;12.50;99.90;;;;;;5077590;28;20029;-73
2022/07/17 01:44:04;;;;;;;2.45;0.90;;;12.50;99.90;;;;;;5065071;28;20075;-72
2022/07/17 01:46:30;;;;;;;8.77;1.48;;;12.50;99.90;;;;;;5064423;28;20025;-72
2022/07/17 01:48:56;;;;;;;8.38;1.13;;;12.50;99.90;;;;;;5063459;28;20024;-72
2022/07/17 01:51:21;;;;;;;4.40;1.08;;;12.50;99.90;;;;;;5062986;28;20033;-73
2022/07/17 01:53:47;;;;;;;8.18;1.63;;;12.40;99.90;;;;;;5064528;28;21016;-71
2022/07/17 01:56:12;;;;;;;2.42;1.33;;;12.40;99.90;;;;;;5062606;28;20044;-72
2022/07/17 01:58:38;;;;;;;9.23;0.80;;;12.40;99.90;;;;;;5063914;28;20025;-72
2022/07/17 02:01:04;;;;;;;1.88;1.20;;;12.40;99.90;;;;;;5064313;28;20027;-72
2022/07/17 02:03:29;;;;;;;0.93;0.70;;;12.40;99.90;;;;;;5064155;28;20021;-72
2022/07/17 02:05:55;;;;;;;4.40;1.35;;;12.40;99.90;;;;;;5064309;28;20032;-72
2022/07/17 02:08:21;;;;;;;2.65;1.35;;;12.40;99.90;;;;;;5062609;28;20037;-72
2022/07/17 02:10:46;;;;;;;5.55;1.48;;;12.40;99.90;;;;;;5063723;28;20045;-73
2022/07/17 02:13:12;;;;;;;3.03;1.08;;;12.40;99.90;;;;;;5062855;28;20055;-73
2022/07/17 02:15:38;;;;;;;2.55;1.00;;;12.30;99.90;;;;;;5063918;28;20494;-74
2022/07/17 02:18:03;;;;;;;3.55;1.08;;;12.30;99.90;;;;;;5063697;28;20077;-73
2022/07/17 02:20:29;;;;;;;1.70;0.77;;;12.30;99.90;;;;;;5062504;28;20092;-73
2022/07/17 02:22:55;;;;;;;5.97;1.13;;;12.30;99.90;;;;;;5063933;28;20036;-74
2022/07/17 02:25:20;;;;;;;5.40;1.30;;;12.10;99.90;;;;;;5063291;28;20021;-74
2022/07/17 02:27:46;;;;;;;4.68;1.20;;;12.20;99.90;;;;;;5063870;28;20021;-74
2022/07/17 02:30:17;;;;;;;2.28;1.30;;;12.20;99.90;;;;;;5063727;28;20413;-73
2022/07/17 02:32:44;;;;;;;2.53;1.02;;;12.10;99.90;;;;;;5063280;28;20048;-74
2022/07/17 02:35:11;;;;;;;3.83;1.10;;;12.10;99.90;;;;;;5063667;28;20112;-73
2022/07/17 02:37:38;;;;;;;4.75;1.33;;;12.10;99.90;;;;;;5063439;28;20050;-75
2022/07/17 02:40:04;;;;;;;3.45;1.25;;;12.00;99.90;;;;;;5063495;28;20017;-74
2022/07/17 02:42:30;;;;;;;0.93;0.85;;;12.00;99.90;;;;;;5061678;28;20088;-72
2022/07/17 02:44:58;;;;;;;2.38;1.00;;;12.00;99.90;;;;;;5063459;28;20025;-75
2022/07/17 02:47:32;;;;;;;2.13;1.08;;;11.90;99.90;;;;;;5062398;28;20087;-73
2022/07/17 02:49:58;;;;;;;14.00;2.13;;;11.90;99.90;;;;;;5063457;28;20056;-73
2022/07/17 02:52:24;;;;;;;2.00;1.08;;;11.80;99.90;;;;;;5062205;28;20037;-72
2022/07/17 02:54:50;;;;;;;2.28;1.15;;;11.80;99.90;;;;;;5061996;28;20519;-74
2022/07/17 02:57:16;;;;;;;4.97;2.17;;;11.90;99.90;;;;;;5062179;28;20768;-75
2022/07/17 02:59:42;;;;;;;2.83;1.13;;;11.90;99.90;;;;;;5061665;28;20029;-73
2022/07/17 03:02:08;;;;;;;3.72;1.60;;;11.80;99.90;;;;;;5061277;28;20037;-75
2022/07/17 03:04:34;;;;;;;8.40;1.40;;;11.80;99.90;;;;;;5061862;28;20579;-74
2022/07/17 03:06:59;;;;;;;3.80;1.42;;;11.80;99.90;;;;;;5062937;28;20025;-73
2022/07/17 03:09:25;;;;;;;1.77;1.23;;;11.80;99.90;;;;;;5063274;28;20039;-73
2022/07/17 03:11:51;;;;;;;2.88;1.60;;;11.70;99.90;;;;;;5062954;28;20392;-73
2022/07/17 03:14:17;;;;;;;3.97;1.08;;;11.70;99.90;;;;;;5062646;28;20024;-72
2022/07/17 03:16:43;;;;;;;5.00;1.63;;;11.60;99.90;;;;;;5061352;28;20055;-74
2022/07/17 03:19:08;;;;;;;5.78;0.82;;;11.70;99.90;;;;;;5062797;28;20017;-73
2022/07/17 03:21:34;;;;;;;2.60;0.98;;;11.70;99.90;;;;;;5061798;28;20024;-73
2022/07/17 03:23:59;;;;;;;4.57;1.58;;;11.80;99.90;;;;;;5062878;28;20088;-75
2022/07/17 03:26:25;;;;;;;6.85;1.70;;;11.80;99.90;;;;;;5062972;28;20021;-74
2022/07/17 03:28:51;;;;;;;2.20;1.23;;;11.80;99.90;;;;;;5062497;28;20051;-74
2022/07/17 03:31:16;;;;;;;7.63;1.63;;;11.80;99.90;;;;;;5062270;28;20135;-73
2022/07/17 03:33:42;;;;;;;4.13;1.55;;;11.90;99.90;;;;;;5062507;28;20112;-74
2022/07/17 03:36:07;;;;;;;3.88;1.67;;;11.90;99.90;;;;;;5062245;28;20021;-74
2022/07/17 03:38:33;;;;;;;2.85;1.33;;;11.90;99.90;;;;;;5062596;28;20044;-74
2022/07/17 03:40:59;;;;;;;2.78;1.42;;;11.90;99.90;;;;;;5062655;28;20434;-74
2022/07/17 03:43:25;;;;;;;4.72;1.25;;;11.90;99.90;;;;;;5062223;28;20366;-74
2022/07/17 03:45:50;;;;;;;4.13;1.75;;;11.90;99.90;;;;;;5062594;28;20027;-74
2022/07/17 03:48:16;;;;;;;8.32;1.50;;;11.90;99.90;;;;;;5062295;28;20021;-74
2022/07/17 03:50:42;;;;;;;3.45;1.33;;;11.90;99.90;;;;;;5061879;28;20044;-74
2022/07/17 03:53:07;;;;;;;3.00;1.50;;;11.80;99.90;;;;;;5060297;28;20131;-74
2022/07/17 03:55:33;;;;;;;6.40;1.20;;;11.60;99.90;;;;;;5060628;28;20044;-74
2022/07/17 03:57:59;;;;;;;4.53;1.48;;;11.70;99.90;;;;;;5062140;28;20089;-74
2022/07/17 04:00:25;;;;;;;2.47;1.13;;;11.70;99.90;;;;;;5060720;28;20029;-74
2022/07/17 04:02:51;;;;;;;1.42;1.13;;;11.70;99.90;;;;;;5060226;28;20052;-74
2022/07/17 04:05:17;;;;;;;3.85;1.40;;;11.70;99.90;;;;;;5061717;28;20021;-74
2022/07/17 04:07:43;;;;;;;1.35;0.98;;;11.70;99.90;;;;;;5060599;28;20915;-73
2022/07/17 04:10:11;;;;;;;5.80;2.17;;;11.80;99.90;;;;;;5061140;28;20027;-74
2022/07/17 04:12:37;;;;;;;3.55;1.23;;;11.80;99.90;;;;;;5061814;28;20052;-73
2022/07/17 04:15:04;;;;;;;5.65;1.45;;;11.80;99.90;;;;;;5061861;28;20027;-74
2022/07/17 04:17:30;;;;;;;1.15;0.75;;;11.90;99.90;;;;;;5061481;28;20029;-75
2022/07/17 04:19:56;;;;;;;12.43;0.90;;;11.90;99.90;;;;;;5062175;28;20057;-74
2022/07/17 04:22:22;;;;;;;1.98;1.15;;;11.90;99.90;;;;;;5061834;28;20025;-73
2022/07/17 04:24:48;;;;;;;2.00;1.42;;;11.90;99.90;;;;;;5060384;28;20040;-74
2022/07/17 04:27:13;;;;;;;7.30;1.50;;;12.00;99.90;;;;;;5061817;28;20118;-74
2022/07/17 04:29:39;;;;;;;2.90;1.10;;;12.00;99.90;;;;;;5061611;28;20033;-74
2022/07/17 04:32:05;;;;;;;1.83;0.95;;;12.00;99.90;;;;;;5059731;28;20045;-73
2022/07/17 04:34:34;;;;;;;2.70;1.25;;;12.00;99.90;;;;;;5060477;28;20041;-74
2022/07/17 04:37:01;;;;;;;8.73;1.08;;;12.10;99.90;;;;;;5061762;28;20135;-73
2022/07/17 04:39:28;;;;;;;21.13;1.73;;;12.10;99.90;;;;;;5059884;28;20064;-74
2022/07/17 04:41:53;;;;;;;4.35;1.52;;;12.10;99.90;;;;;;5061862;28;20400;-73
2022/07/17 04:44:19;;;;;;;3.63;1.58;;;12.10;99.90;;;;;;5059680;28;20044;-73
2022/07/17 04:46:45;;;;;;;2.78;1.45;;;12.10;99.90;;;;;;5061075;28;20025;-74
2022/07/17 04:49:11;;;;;;;4.60;1.63;;;12.20;99.90;;;;;;5061615;28;20414;-72
2022/07/17 04:51:37;;;;;;;5.60;1.77;;;12.20;99.90;;;;;;5060923;28;20064;-72
2022/07/17 04:54:02;;;;;;;3.83;2.00;;;12.20;99.90;;;;;;5061455;28;20461;-73
2022/07/17 04:56:28;;;;;;;7.15;2.22;;;12.30;99.90;;;;;;5061762;28;20036;-72
2022/07/17 04:58:54;;;;;;;6.68;1.95;;;12.30;99.90;;;;;;5060216;28;20022;-72
2022/07/17 05:01:20;;;;;;;9.70;1.90;;;12.30;99.90;;;;;;5060823;28;20025;-73
2022/07/17 05:03:45;;;;;;;1.63;1.00;;;12.30;99.90;;;;;;5060328;28;20029;-72
2022/07/17 05:06:11;;;;;;;2.72;1.70;;;12.30;99.90;;;;;;5061229;28;20021;-75
2022/07/17 05:08:36;;;;;;;9.65;1.38;;;12.40;99.90;;;;;;5060425;28;20088;-74
2022/07/17 05:11:03;;;;;;;5.50;1.10;;;12.40;99.90;;;;;;5059426;28;20547;-73
2022/07/17 05:13:28;;;;;;;5.22;1.73;;;12.50;99.90;;;;;;5060818;28;20021;-76
2022/07/17 05:15:55;;;;;;;3.95;1.20;;;12.60;99.90;;;;;;5059529;28;20063;-76
2022/07/17 05:18:20;;;;;;;9.68;1.40;;;12.60;99.90;;;;;;5060003;28;20029;-75
2022/07/17 05:20:46;;;;;;;1.73;0.90;;;12.70;99.90;;;;;;5060644;28;20068;-74
2022/07/17 05:23:11;;;;;;;4.93;1.77;;;12.70;99.90;;;;;;5059346;28;20052;-75
2022/07/17 05:25:37;;;;;;;1.15;0.93;;;12.70;99.90;;;;;;5064577;28;20033;-75
2022/07/17 05:28:03;;;;;;;2.60;1.40;;;12.80;99.90;;;;;;5064497;28;20028;-77
2022/07/17 05:30:30;;;;;;;5.40;1.75;;;12.80;99.90;;;;;;5064685;28;20025;-75
2022/07/17 05:32:56;;;;;;;5.82;1.80;;;12.80;99.90;;;;;;5063334;28;20041;-75
2022/07/17 05:35:21;;;;;;;2.85;1.85;;;12.90;99.90;;;;;;5062712;28;20025;-76
2022/07/17 05:37:47;;;;;;;6.20;1.67;;;12.90;99.90;;;;;;5060422;28;20059;-76
2022/07/17 05:40:13;;;;;;;1.73;1.17;;;13.00;99.90;;;;;;5054784;28;20047;-76
2022/07/17 05:42:38;;;;;;;6.82;1.50;;;13.10;99.90;;;;;;5062913;28;20175;-74
2022/07/17 05:45:05;;;;;;;3.55;1.42;;;13.10;99.90;;;;;;5063998;28;20028;-74
2022/07/17 05:47:31;;;;;;;5.20;2.00;;;13.10;99.90;;;;;;5059584;28;20033;-75
2022/07/17 05:49:57;;;;;;;7.55;1.63;;;13.20;99.90;;;;;;5062713;28;20037;-73
2022/07/17 05:52:23;;;;;;;4.32;1.58;;;13.20;99.90;;;;;;5060641;28;20088;-74
2022/07/17 05:54:48;;;;;;;1.77;1.10;;;13.20;99.90;;;;;;5062063;28;20025;-75
2022/07/17 05:57:14;;;;;;;6.07;1.73;;;13.30;99.90;;;;;;5064292;28;20097;-75
2022/07/17 05:59:39;;;;;;;1.75;0.98;;;13.40;99.90;;;;;;5060027;28;20036;-76
2022/07/17 06:02:05;;;;;;;4.68;1.13;;;13.40;99.90;;;;;;5060385;28;20037;-77
2022/07/17 06:04:31;;;;;;;4.43;1.08;;;13.50;99.90;;;;;;5059934;28;20028;-71
2022/07/17 06:06:57;;;;;;;3.35;1.08;;;13.60;99.90;;;;;;5057474;28;20595;-73
2022/07/17 06:09:23;;;;;;;3.08;1.30;;;13.70;99.90;;;;;;5055697;28;20195;-73
2022/07/17 06:11:48;;;;;;;2.35;1.00;;;13.80;99.90;;;;;;5057945;28;20051;-73
2022/07/17 06:14:14;;;;;;;7.40;1.73;;;13.90;99.90;;;;;;5061709;28;20950;-74
2022/07/17 06:16:39;;;;;;;1.05;0.60;;;14.00;99.90;;;;;;5064014;28;20036;-72
2022/07/17 06:19:05;;;;;;;8.82;1.35;;;14.10;99.90;;;;;;5062710;28;20072;-74
2022/07/17 06:21:31;;;;;;;17.48;1.17;;;14.30;99.90;;;;;;5063396;28;20071;-74
2022/07/17 06:23:56;;;;;;;5.25;0.85;;;14.40;99.90;;;;;;5064274;28;20075;-74
2022/07/17 06:26:22;;;;;;;3.33;1.13;;;14.50;99.90;;;;;;5064412;28;20029;-73
2022/07/17 06:28:48;;;;;;;4.78;0.50;;;14.50;99.90;;;;;;5062205;28;20048;-73
2022/07/17 06:31:14;;;;;;;4.10;0.65;;;14.70;99.90;;;;;;5060746;28;20099;-75
2022/07/17 06:33:39;;;;;;;2.15;0.90;;;14.80;99.90;;;;;;5062614;28;20033;-72
2022/07/17 06:36:05;;;;;;;0.50;0.50;;;14.90;99.90;;;;;;5059525;28;20021;-70
2022/07/17 06:38:33;;;;;;;3.17;1.02;;;15.00;99.90;;;;;;5062552;28;20055;-74
2022/07/17 06:40:59;;;;;;;3.38;1.33;;;15.10;99.90;;;;;;5063390;28;20027;-73
2022/07/17 06:43:25;;;;;;;1.08;0.70;;;15.20;99.90;;;;;;5061549;28;20021;-75
2022/07/17 06:45:53;;;;;;;1.45;1.00;;;15.20;99.90;;;;;;5062273;28;20033;-74
2022/07/17 06:48:20;;;;;;;1.25;0.85;;;15.30;99.90;;;;;;5061195;28;20025;-74
2022/07/17 06:50:45;;;;;;;0.55;0.40;;;15.40;99.90;;;;;;5061420;28;20488;-72
2022/07/17 06:53:11;;;;;;;0.68;0.43;;;15.50;99.90;;;;;;5058641;28;20090;-74
2022/07/17 06:55:37;;;;;;;3.70;1.23;;;15.50;99.90;;;;;;5061132;28;20025;-78
2022/07/17 06:58:02;;;;;;;1.15;0.60;;;15.60;99.90;;;;;;5060318;28;20040;-74
2022/07/17 07:00:28;;;;;;;2.83;0.50;;;15.60;99.90;;;;;;5060491;28;20037;-74
2022/07/17 07:02:54;;;;;;;0.75;0.40;;;15.60;99.90;;;;;;5059307;28;20126;-76
2022/07/17 07:05:20;;;;;;;5.38;0.60;;;15.70;99.90;;;;;;5061242;28;20032;-75
2022/07/17 07:07:46;;;;;;;3.30;0.90;;;15.70;99.90;;;;;;5061585;28;20928;-74
2022/07/17 07:10:12;;;;;;;2.63;0.47;;;15.70;99.90;;;;;;5062631;28;20036;-74
2022/07/17 07:12:40;;;;;;;7.68;1.08;;;15.80;99.90;;;;;;5061983;28;20037;-76
2022/07/17 07:15:07;;;;;;;0.73;0.30;;;15.90;99.90;;;;;;5059340;28;20138;-75
2022/07/17 07:17:36;;;;;;;1.95;0.47;;;16.00;99.90;;;;;;5059636;28;20036;-74
2022/07/17 07:20:05;;;;;;;1.08;0.70;;;16.00;99.90;;;;;;5060835;28;20029;-79
2022/07/17 07:22:34;;;;;;;19.02;1.20;;;16.10;99.90;;;;;;5061964;28;20024;-75
2022/07/17 07:25:00;;;;;;;7.63;0.98;;;16.10;99.90;;;;;;5061645;28;20036;-75
2022/07/17 07:27:26;;;;;;;3.63;1.25;;;16.10;99.90;;;;;;5063209;28;20036;-74
2022/07/17 07:29:51;;;;;;;4.18;0.60;;;16.10;99.90;;;;;;5062693;28;20025;-74
2022/07/17 07:32:17;;;;;;;1.40;0.60;;;16.20;99.90;;;;;;5060932;28;20061;-73
2022/07/17 07:34:42;;;;;;;2.55;0.88;;;16.30;99.90;;;;;;5062551;28;20075;-75
2022/07/17 07:37:08;;;;;;;3.97;0.52;;;16.30;99.90;;;;;;5060722;28;20033;-74
2022/07/17 07:39:34;;;;;;;3.72;0.82;;;16.30;99.90;;;;;;5060488;28;20063;-74
2022/07/17 07:41:59;;;;;;;1.60;0.63;;;16.40;99.90;;;;;;5061191;28;20036;-75
2022/07/17 07:44:25;;;;;;;4.22;1.20;;;16.30;99.90;;;;;;5058955;28;20021;-76
2022/07/17 07:46:55;;;;;;;3.60;0.65;;;16.30;99.90;;;;;;5060935;28;20021;-76
2022/07/17 07:49:21;;;;;;;0.82;0.40;;;16.40;99.90;;;;;;5062676;28;20021;-76
2022/07/17 07:51:46;;;;;;;12.10;0.77;;;16.50;99.90;;;;;;5061542;28;20037;-76
2022/07/17 07:54:12;;;;;;;2.10;0.63;;;16.60;99.90;;;;;;5060559;28;20081;-75
2022/07/17 07:56:38;;;;;;;2.88;0.63;;;16.70;99.90;;;;;;5060522;28;20040;-75
2022/07/17 07:59:08;;;;;;;2.63;0.60;;;16.70;99.90;;;;;;5061642;28;20104;-73
2022/07/17 08:01:33;;;;;;;4.00;0.60;;;16.80;99.90;;;;;;5060590;28;20033;-73
2022/07/17 08:03:59;;;;;;;8.18;0.63;;;16.80;99.90;;;;;;5055330;28;20067;-75
2022/07/17 08:06:24;;;;;;;1.08;0.50;;;16.80;99.90;;;;;;5054985;28;20033;-75
2022/07/17 08:08:50;;;;;;;5.82;0.73;;;16.90;99.90;;;;;;5056537;28;20067;-75
2022/07/17 08:11:16;;;;;;;10.55;0.85;;;16.90;99.90;;;;;;5055794;28;20045;-74
2022/07/17 08:13:41;;;;;;;5.47;0.57;;;17.00;99.90;;;;;;5059103;28;20051;-74
2022/07/17 08:16:07;;;;;;;1.08;0.45;;;17.10;99.90;;;;;;5053943;28;20032;-76
2022/07/17 08:18:34;;;;;;;0.63;0.28;;;17.10;99.90;;;;;;5058919;28;20032;-74
2022/07/17 08:21:03;;;;;;;4.22;1.08;;;17.20;99.90;;;;;;5061184;28;20020;-75
2022/07/17 08:23:32;;;;;;;2.45;0.70;;;17.20;99.90;;;;;;5060622;28;20027;-75
2022/07/17 08:25:57;;;;;;;1.17;0.68;;;17.30;99.90;;;;;;5060359;28;20067;-76
2022/07/17 08:28:23;;;;;;;1.05;0.30;;;17.30;99.90;;;;;;5056785;28;20043;-74
2022/07/17 08:30:49;;;;;;;2.85;0.75;;;17.40;99.90;;;;;;5060470;28;20477;-74
2022/07/17 08:33:17;;;;;;;2.17;0.60;;;17.40;99.90;;;;;;5061953;28;20033;-73
2022/07/17 08:35:42;;;;;;;2.17;0.60;;;17.70;99.90;;;;;;5061321;28;20028;-76
2022/07/17 08:38:08;;;;;;;2.65;0.82;;;18.00;99.90;;;;;;5060586;28;20021;-74
2022/07/17 08:40:36;;;;;;;4.60;0.40;;;17.90;99.90;;;;;;5062099;28;20049;-74
2022/07/17 08:43:04;;;;;;;7.20;0.60;;;18.00;99.90;;;;;;5057655;28;20031;-75
2022/07/17 08:45:29;;;;;;;1.67;0.50;;;18.00;99.90;;;;;;5058106;28;20036;-75
2022/07/17 08:47:56;;;;;;;0.82;0.60;;;18.00;99.90;;;;;;5061153;28;20017;-74
2022/07/17 08:50:29;;;;;;;0.50;0.50;;;18.10;99.90;;;;;;5061090;28;20029;-75
2022/07/17 08:52:56;;;;;;;0.82;0.50;;;17.90;99.90;;;;;;5057009;28;20037;-76
2022/07/17 08:55:21;;;;;;;0.57;0.28;;;18.00;99.90;;;;;;5061617;28;20029;-75
2022/07/17 08:57:47;;;;;;;0.65;0.30;;;17.90;99.90;;;;;;5063282;28;20079;-71
2022/07/17 09:00:18;;;;;;;8.95;0.60;;;17.90;99.90;;;;;;5062446;28;20029;-77
2022/07/17 09:03:05;;;;;;;0.20;0.20;;;17.90;99.90;;;;;;5061351;28;20109;-75
2022/07/17 09:05:37;;;;;;;1.95;0.50;;;18.10;99.90;;;;;;5064553;28;20053;-77
2022/07/17 09:08:04;;;;;;;7.28;0.70;;;18.20;99.90;;;;;;5063069;28;20055;-78
2022/07/17 09:10:36;;;;;;;1.05;0.40;;;18.30;99.90;;;;;;5064512;28;20025;-76
2022/07/17 09:13:22;;;;;;;1.08;0.52;;;18.40;99.90;;;;;;5063187;28;20059;-77
2022/07/17 09:15:50;;;;;;;0.80;0.30;;;18.60;99.90;;;;;;5062721;28;20578;-75
2022/07/17 09:18:17;;;;;;;0.60;0.30;;;18.60;99.90;;;;;;5065060;28;20026;-75
2022/07/17 09:20:49;;;;;;;0.95;0.70;;;18.80;99.90;;;;;;5064373;28;20040;-76
2022/07/17 09:23:16;;;;;;;0.22;0.22;;;19.00;99.90;;;;;;5057218;28;20559;-76
2022/07/17 09:25:44;;;;;;;0.60;0.50;;;19.00;99.90;;;;;;5064549;28;20033;-76
2022/07/17 09:28:13;;;;;;;1.20;0.60;;;19.00;99.90;;;;;;5062003;28;20104;-72
2022/07/17 09:30:42;;;;;;;1.08;0.43;;;19.20;99.90;;;;;;5063634;28;20096;-71
2022/07/17 09:33:27;;;;;;;1.48;0.50;;;19.20;99.90;;;;;;5062344;28;20063;-72
2022/07/17 09:36:05;;;;;;;0.88;0.70;;;19.30;99.90;;;;;;5064097;28;20212;-72
2022/07/17 09:38:36;;;;;;;0.20;0.17;;;19.40;99.90;;;;;;5063484;28;20052;-73
2022/07/17 09:41:09;;;;;;;1.98;0.22;;;19.40;99.90;;;;;;5063005;28;20062;-71
2022/07/17 09:43:50;;;;;;;0.82;0.40;;;19.40;99.90;;;;;;5062354;28;20025;-72
2022/07/17 09:46:26;;;;;;;0.40;0.30;;;19.50;99.90;;;;;;5061491;28;20129;-72
2022/07/17 09:48:59;;;;;;;4.32;0.47;;;19.70;99.90;;;;;;5061517;28;20067;-73
2022/07/17 09:51:31;;;;;;;1.60;0.33;;;19.80;99.90;;;;;;5063385;28;20044;-73
2022/07/17 09:54:01;;;;;;;4.18;0.47;;;19.80;99.90;;;;;;5062809;28;20287;-75
2022/07/17 09:56:30;;;;;;;0.75;0.38;;;19.90;99.90;;;;;;5060768;28;20025;-75
2022/07/17 09:59:07;;;;;;;2.80;0.45;;;19.90;99.90;;;;;;5063090;28;20033;-74
2022/07/17 10:01:38;;;;;;;1.33;0.73;;;19.90;99.90;;;;;;5062778;28;20469;-72
2022/07/17 10:04:05;;;;;;;1.23;0.32;;;19.80;99.90;;;;;;5063992;28;20044;-75
2022/07/17 10:06:31;;;;;;;1.95;0.80;;;19.80;99.90;;;;;;5064193;28;20048;-74
2022/07/17 10:08:57;;;;;;;3.25;0.55;;;19.80;99.90;;;;;;5064298;28;20384;-72
2022/07/17 10:11:27;;;;;;;0.20;0.20;;;19.90;99.90;;;;;;5064384;28;20056;-74
2022/07/17 10:13:56;;;;;;;0.55;0.20;;;20.00;99.90;;;;;;5061829;28;20040;-73
2022/07/17 10:16:27;;;;;;;0.65;0.35;;;20.10;99.90;;;;;;5062406;28;20033;-73
2022/07/17 10:18:55;;;;;;;1.75;0.65;;;20.30;99.90;;;;;;5062278;28;20389;-74
2022/07/17 10:21:22;;;;;;;0.13;0.13;;;20.50;99.90;;;;;;5063334;28;20036;-75
2022/07/17 10:23:53;;;;;;;1.02;0.32;;;20.60;99.90;;;;;;5064307;28;20021;-73
2022/07/17 10:26:38;;;;;;;1.33;0.28;;;20.60;99.90;;;;;;5062461;28;20049;-71
2022/07/17 10:29:07;;;;;;;;;;;20.60;99.90;;;;;;5062640;28;20036;-72
2022/07/17 10:31:33;;;;;;;0.55;0.35;;;20.70;99.90;;;;;;5057725;28;19916;-73
2022/07/17 10:34:04;;;;;;;0.55;0.30;;;20.70;99.90;;;;;;5063718;28;20053;-73
2022/07/17 10:36:41;;;;;;;0.40;0.40;;;20.80;99.90;;;;;;5062036;28;20028;-73
2022/07/17 10:39:18;;;;;;;11.48;0.20;;;20.90;99.90;;;;;;5062784;28;20106;-73
2022/07/17 10:41:57;;;;;;;0.95;0.38;;;20.90;99.90;;;;;;5062503;28;20039;-71
2022/07/17 10:44:31;;;;;;;0.17;0.13;;;21.00;99.90;;;;;;5060013;28;20029;-72
2022/07/17 10:46:57;;;;;;;0.45;0.30;;;21.00;99.90;;;;;;5061690;28;20036;-74
2022/07/17 10:49:24;;;;;;;0.30;0.10;;;21.00;99.90;;;;;;5062194;28;20447;-73
2022/07/17 10:51:50;;;;;;;0.35;0.17;;;21.00;99.90;;;;;;5063404;28;20457;-72
2022/07/17 10:54:17;;;;;;;1.17;0.45;;;21.10;99.90;;;;;;5061964;28;20024;-72
2022/07/17 10:56:45;;;;;;;0.50;0.25;;;21.30;99.90;;;;;;5063167;28;20044;-72
2022/07/17 10:59:11;;;;;;;2.17;0.32;;;21.50;99.90;;;;;;5062899;28;20017;-73
2022/07/17 11:01:37;;;;;;;1.45;0.40;;;21.50;99.90;;;;;;5062336;28;20032;-73
2022/07/17 11:04:04;;;;;;;1.05;0.63;;;21.60;99.90;;;;;;5061540;28;20033;-69
2022/07/17 11:06:32;;;;;;;1.02;0.28;;;21.60;99.90;;;;;;5062835;28;20021;-71
2022/07/17 11:08:58;;;;;;;1.15;0.32;;;21.80;99.90;;;;;;5058756;28;20977;-73
2022/07/17 11:11:45;;;;;;;0.95;0.25;;;21.80;99.90;;;;;;5057049;28;20043;-76
2022/07/17 11:14:17;;;;;;;2.25;0.35;;;21.70;99.90;;;;;;5053244;28;20163;-75
2022/07/17 11:16:46;;;;;;;0.73;0.47;;;21.70;99.90;;;;;;5061846;28;20085;-73
2022/07/17 11:19:27;;;;;;;4.00;0.32;;;21.80;99.90;;;;;;5061246;28;20031;-73
2022/07/17 11:21:53;;;;;;;0.47;0.40;;;21.90;99.90;;;;;;5062904;28;20021;-72
2022/07/17 11:24:19;;;;;;;9.23;0.75;;;22.10;99.90;;;;;;5061382;28;20032;-72
2022/07/17 11:26:49;;;;;;;0.38;0.32;;;22.30;99.90;;;;;;5061385;28;20044;-73
2022/07/17 11:29:14;;;;;;;0.75;0.73;;;22.50;99.90;;;;;;5062545;28;20051;-74
2022/07/17 11:31:40;;;;;;;1.17;0.30;;;22.50;99.90;;;;;;5062010;28;20100;-74
2022/07/17 11:34:11;;;;;;;6.05;0.38;;;22.40;99.90;;;;;;5060925;28;20049;-72
2022/07/17 11:36:41;;;;;;;3.53;0.47;;;22.10;99.90;;;;;;5062040;28;20024;-69
2022/07/17 11:39:12;;;;;;;0.73;0.40;;;22.00;99.90;;;;;;5060352;28;20556;-71
2022/07/17 11:41:40;;;;;;;1.25;0.35;;;22.00;99.90;;;;;;5059265;28;20021;-72
2022/07/17 11:44:10;;;;;;;0.68;0.30;;;22.10;99.90;;;;;;5061053;28;20025;-73
2022/07/17 11:46:37;;;;;;;2.97;0.65;;;22.20;99.90;;;;;;5060881;28;20679;-73
2022/07/17 11:49:03;;;;;;;0.38;0.20;;;22.40;99.90;;;;;;5062335;28;20017;-74
2022/07/17 11:51:35;;;;;;;0.80;0.50;;;22.50;99.90;;;;;;5062359;28;20111;-72
2022/07/17 11:54:05;;;;;;;0.82;0.28;;;22.60;99.90;;;;;;5062009;28;20029;-73
2022/07/17 11:56:31;;;;;;;1.35;0.40;;;22.70;99.90;;;;;;5062177;28;20029;-73
2022/07/17 11:58:56;;;;;;;0.50;0.32;;;22.80;99.90;;;;;;5062214;28;20029;-72
2022/07/17 12:01:23;;;;;;;1.30;0.47;;;22.90;99.90;;;;;;5062419;28;20108;-72
2022/07/17 12:03:59;;;;;;;0.90;0.40;;;23.10;99.90;;;;;;5061748;28;20053;-73
2022/07/17 12:06:26;;;;;;;0.40;0.28;;;23.10;99.90;;;;;;5062148;28;20073;-74
2022/07/17 12:08:53;;;;;;;0.10;0.10;;;23.20;99.90;;;;;;5061197;28;20025;-73
2022/07/17 12:11:19;;;;;;;1.05;0.47;;;23.30;99.90;;;;;;5061128;28;20056;-71
2022/07/17 12:13:46;;;;;;;3.80;0.50;;;23.40;99.90;;;;;;5061664;28;20055;-74
2022/07/17 12:16:25;;;;;;;1.23;0.38;;;23.50;99.90;;;;;;5054858;28;20081;-78
2022/07/17 12:18:59;;;;;;;0.75;0.57;;;23.60;99.90;;;;;;5061361;28;20025;-73
2022/07/17 12:21:25;;;;;;;0.57;0.32;;;23.50;99.90;;;;;;5061508;28;20025;-72
2022/07/17 12:24:06;;;;;;;1.45;0.40;;;23.50;99.90;;;;;;5061427;28;20032;-71
2022/07/17 12:26:32;;;;;;;2.47;0.38;;;23.60;99.90;;;;;;5060442;28;20040;-73
2022/07/17 12:28:59;;;;;;;0.50;0.28;;;23.80;99.90;;;;;;5061364;28;20029;-72
2022/07/17 14:07:37;;;;;;;0.65;0.32;;;27.70;99.90;;;;;;5253883;23;20066;-70
2022/07/17 14:10:03;;;;;;;0.63;0.47;;;27.50;99.90;;;;;;4991352;28;20031;-72
2022/07/17 14:12:29;;;;;;;1.13;0.63;;;27.30;99.90;;;;;;4995556;28;20046;-71
2022/07/17 14:14:55;;;;;;;0.65;0.50;;;27.00;99.90;;;;;;4995372;28;20054;-71
2022/07/17 14:17:20;;;;;;;2.25;0.65;;;26.80;99.90;;;;;;4992350;28;20030;-69
2022/07/17 14:19:46;;;;;;;0.40;0.40;;;26.70;99.90;;;;;;4993306;28;20386;-72
2022/07/17 14:22:13;;;;;;;2.25;0.80;;;26.60;99.90;;;;;;4994339;28;20079;-73
2022/07/17 14:24:38;;;;;;;1.55;0.35;;;26.50;99.90;;;;;;4995079;28;20057;-72